Time;durP1;ratioP1;P1;durP2;ratioP2;P2;SDS_P1;SDS_P2;PMS_P1;PMS_P2;Temp;Humidity;BMP_temperature;BMP_pressure;BME280_temperature;BME280_humidity;BME280_pressure;Samples;Min_cycle;Max_cycle;Signal;HPM_P1;HPM_P2
2021/11/23 00:00:08;;;;;;;10.02;7.25;;;2.20;99.90;;;;;;5042829;28;20030;-64
2021/11/23 00:02:38;;;;;;;10.88;7.80;;;2.10;99.90;;;;;;5044918;28;20041;-65
2021/11/23 00:05:06;;;;;;;9.65;7.43;;;2.10;99.90;;;;;;5046937;28;20041;-64
2021/11/23 00:07:32;;;;;;;9.38;6.88;;;2.20;99.90;;;;;;5041717;28;20037;-64
2021/11/23 00:09:58;;;;;;;11.90;7.40;;;2.00;99.90;;;;;;5045534;28;20021;-63
2021/11/23 00:12:24;;;;;;;12.60;7.80;;;1.90;99.90;;;;;;5047568;28;20136;-63
2021/11/23 00:14:50;;;;;;;11.05;7.43;;;1.90;99.90;;;;;;5036813;28;20060;-63
2021/11/23 00:17:17;;;;;;;14.07;7.90;;;1.80;99.90;;;;;;5047001;28;20065;-64
2021/11/23 00:19:43;;;;;;;11.05;7.10;;;1.80;99.90;;;;;;5043797;28;20021;-65
2021/11/23 00:22:09;;;;;;;10.57;7.55;;;1.80;99.90;;;;;;5043272;28;20027;-63
2021/11/23 00:24:35;;;;;;;14.02;8.18;;;1.90;99.90;;;;;;5041090;28;20493;-63
2021/11/23 00:27:00;;;;;;;10.18;7.60;;;1.90;99.90;;;;;;5041799;28;20034;-64
2021/11/23 00:29:26;;;;;;;11.68;6.78;;;1.80;99.90;;;;;;5043427;28;20033;-63
2021/11/23 00:31:52;;;;;;;11.10;6.72;;;1.80;99.90;;;;;;5042355;28;20175;-64
2021/11/23 00:34:17;;;;;;;11.30;7.53;;;1.90;99.90;;;;;;5042276;28;20534;-62
2021/11/23 00:36:43;;;;;;;11.73;8.27;;;1.90;99.90;;;;;;5040688;28;20127;-65
2021/11/23 00:39:09;;;;;;;8.80;7.10;;;1.90;99.90;;;;;;5042128;28;20465;-64
2021/11/23 00:41:35;;;;;;;11.82;6.72;;;1.90;99.90;;;;;;5044008;28;20524;-63
2021/11/23 00:44:00;;;;;;;10.60;6.45;;;2.00;99.90;;;;;;5043017;28;20063;-64
2021/11/23 00:46:26;;;;;;;8.88;7.18;;;1.90;99.90;;;;;;5041278;28;20454;-63
2021/11/23 00:48:52;;;;;;;10.15;6.72;;;1.90;99.90;;;;;;5041483;28;20419;-64
2021/11/23 00:51:18;;;;;;;12.80;7.05;;;1.90;99.90;;;;;;5041677;28;20044;-63
2021/11/23 00:53:44;;;;;;;9.73;7.18;;;1.90;99.90;;;;;;5040954;28;20025;-63
2021/11/23 00:56:09;;;;;;;10.45;7.78;;;1.80;99.90;;;;;;5041517;28;20040;-63
2021/11/23 00:58:36;;;;;;;10.23;7.25;;;1.80;99.90;;;;;;5042315;28;20120;-64
2021/11/23 01:01:02;;;;;;;8.63;7.40;;;1.80;99.90;;;;;;5040456;28;20033;-64
2021/11/23 01:03:32;;;;;;;14.43;7.35;;;1.80;99.90;;;;;;5041527;28;20731;-62
2021/11/23 01:06:01;;;;;;;9.48;7.88;;;1.80;99.90;;;;;;5042384;28;20033;-65
2021/11/23 01:08:27;;;;;;;9.25;7.10;;;1.70;99.90;;;;;;5041457;28;20033;-64
2021/11/23 01:10:54;;;;;;;8.82;6.63;;;1.70;99.90;;;;;;5040470;28;20037;-64
2021/11/23 01:13:19;;;;;;;10.60;7.95;;;1.70;99.90;;;;;;5042726;28;20064;-65
2021/11/23 01:15:45;;;;;;;11.10;8.23;;;1.80;99.90;;;;;;5040221;28;20440;-63
2021/11/23 01:18:12;;;;;;;10.82;7.35;;;1.70;99.90;;;;;;5040042;28;20584;-64
2021/11/23 01:20:38;;;;;;;10.90;7.20;;;1.80;99.90;;;;;;5045629;28;20042;-65
2021/11/23 01:23:05;;;;;;;8.93;7.38;;;1.80;99.90;;;;;;5044343;28;20024;-64
2021/11/23 01:25:32;;;;;;;12.32;8.10;;;1.80;99.90;;;;;;5044732;28;20032;-64
2021/11/23 01:27:58;;;;;;;10.93;7.88;;;1.80;99.90;;;;;;5038356;28;20052;-65
2021/11/23 01:30:23;;;;;;;12.65;8.07;;;1.80;99.90;;;;;;5045312;28;20099;-64
2021/11/23 01:32:49;;;;;;;10.57;7.93;;;1.80;99.90;;;;;;5043341;28;20124;-62
2021/11/23 01:35:16;;;;;;;9.93;7.57;;;1.80;99.90;;;;;;5045197;28;20021;-65
2021/11/23 01:37:44;;;;;;;11.38;8.52;;;1.90;99.90;;;;;;5040300;28;21227;-63
2021/11/23 01:40:12;;;;;;;14.63;9.15;;;1.90;99.90;;;;;;5041242;28;20040;-64
2021/11/23 01:42:38;;;;;;;12.20;8.70;;;1.90;99.90;;;;;;5046803;28;20091;-63
2021/11/23 01:45:05;;;;;;;11.75;8.75;;;1.80;99.90;;;;;;5040022;28;20059;-65
2021/11/23 01:47:31;;;;;;;11.50;7.65;;;1.80;99.90;;;;;;5037485;28;20033;-64
2021/11/23 01:49:57;;;;;;;10.68;8.30;;;1.90;99.90;;;;;;5049765;28;20045;-64
2021/11/23 01:52:23;;;;;;;12.18;8.43;;;1.90;99.90;;;;;;5050119;28;20044;-64
2021/11/23 01:54:49;;;;;;;13.43;9.13;;;2.00;99.90;;;;;;5050280;28;20115;-63
2021/11/23 01:57:16;;;;;;;10.23;8.50;;;1.90;99.90;;;;;;5051439;28;20823;-64
2021/11/23 01:59:42;;;;;;;15.18;8.75;;;1.80;99.90;;;;;;5051083;28;20086;-63
2021/11/23 02:02:08;;;;;;;13.00;8.80;;;1.80;99.90;;;;;;5051314;28;20048;-63
2021/11/23 02:04:34;;;;;;;16.00;8.75;;;1.80;99.90;;;;;;5046844;28;20056;-64
2021/11/23 02:06:59;;;;;;;14.60;8.45;;;1.80;99.90;;;;;;5041667;28;20029;-64
2021/11/23 02:09:25;;;;;;;13.15;8.23;;;1.80;99.90;;;;;;5041957;28;20045;-64
2021/11/23 02:11:52;;;;;;;11.95;8.05;;;2.00;99.90;;;;;;5040040;28;20036;-63
2021/11/23 02:14:19;;;;;;;10.35;8.40;;;2.00;99.90;;;;;;5032547;28;20032;-64
2021/11/23 02:16:45;;;;;;;12.57;9.43;;;1.90;99.90;;;;;;5050097;28;20040;-65
2021/11/23 02:19:11;;;;;;;12.50;9.18;;;1.90;99.90;;;;;;5050637;28;20446;-65
2021/11/23 02:21:37;;;;;;;13.45;9.02;;;1.80;99.90;;;;;;5051110;28;20036;-65
2021/11/23 02:24:03;;;;;;;13.63;8.95;;;1.70;99.90;;;;;;5051258;28;20033;-63
2021/11/23 02:26:29;;;;;;;14.05;8.52;;;1.70;99.90;;;;;;5050196;28;20401;-62
2021/11/23 02:28:56;;;;;;;12.82;9.52;;;1.70;99.90;;;;;;5051382;28;20120;-63
2021/11/23 02:31:22;;;;;;;12.48;9.40;;;1.70;99.90;;;;;;5066505;28;20040;-65
2021/11/23 02:33:49;;;;;;;14.98;9.20;;;1.70;99.90;;;;;;5051775;28;20089;-63
2021/11/23 02:36:16;;;;;;;14.63;9.70;;;1.80;99.90;;;;;;5054199;28;20136;-64
2021/11/23 02:38:42;;;;;;;15.85;10.15;;;1.80;99.90;;;;;;5055343;28;20021;-64
2021/11/23 02:41:12;;;;;;;16.13;10.85;;;1.80;99.90;;;;;;5055889;28;20227;-64
2021/11/23 02:43:39;;;;;;;18.48;11.10;;;1.80;99.90;;;;;;5074654;28;20029;-64
2021/11/23 02:46:05;;;;;;;14.60;11.18;;;1.70;99.90;;;;;;5074995;28;20029;-65
2021/11/23 02:48:31;;;;;;;19.60;11.57;;;1.80;99.90;;;;;;5074889;28;20033;-63
2021/11/23 02:51:18;;;;;;;17.40;11.23;;;1.80;99.90;;;;;;5074584;28;20036;-65
2021/11/23 02:53:45;;;;;;;16.90;11.45;;;1.80;99.90;;;;;;5074468;28;20044;-64
2021/11/23 02:56:12;;;;;;;19.02;12.02;;;1.80;99.90;;;;;;5074459;28;20681;-64
2021/11/23 02:58:40;;;;;;;19.88;13.73;;;1.80;99.90;;;;;;5074870;28;20028;-66
2021/11/23 03:01:08;;;;;;;20.40;12.60;;;1.80;99.90;;;;;;5072869;28;20036;-65
2021/11/23 03:03:33;;;;;;;19.77;12.93;;;1.70;99.90;;;;;;5074664;28;20500;-65
2021/11/23 03:05:59;;;;;;;20.15;12.40;;;1.80;99.90;;;;;;5072653;28;20114;-63
2021/11/23 03:08:25;;;;;;;20.30;13.68;;;1.80;99.90;;;;;;5072170;28;20517;-64
2021/11/23 03:10:51;;;;;;;20.20;13.85;;;1.90;99.90;;;;;;5073272;28;20167;-62
2021/11/23 03:13:17;;;;;;;21.27;13.68;;;1.90;99.90;;;;;;5073600;28;20040;-64
2021/11/23 03:15:43;;;;;;;22.95;15.10;;;1.90;99.90;;;;;;5072392;28;20106;-64
2021/11/23 03:18:12;;;;;;;23.25;15.15;;;1.90;99.90;;;;;;5073630;28;20036;-65
2021/11/23 03:20:38;;;;;;;23.23;15.57;;;1.90;99.90;;;;;;5071994;28;20024;-63
2021/11/23 03:23:06;;;;;;;22.13;14.00;;;1.90;99.90;;;;;;5054151;28;20477;-64
2021/11/23 03:25:32;;;;;;;23.70;14.55;;;1.90;99.90;;;;;;5053783;28;20041;-65
2021/11/23 03:27:58;;;;;;;24.55;14.63;;;1.80;99.90;;;;;;5053624;28;20535;-63
2021/11/23 03:30:27;;;;;;;25.33;16.20;;;1.80;99.90;;;;;;5053259;28;20037;-63
2021/11/23 03:32:54;;;;;;;25.35;15.70;;;1.90;99.90;;;;;;5052762;28;20056;-64
2021/11/23 03:35:22;;;;;;;21.38;14.50;;;1.90;99.90;;;;;;5051992;28;20083;-63
2021/11/23 03:37:48;;;;;;;23.25;14.27;;;2.00;99.90;;;;;;5052770;28;20033;-65
2021/11/23 03:40:14;;;;;;;26.40;15.32;;;2.00;99.90;;;;;;5053162;28;20037;-65
2021/11/23 03:42:40;;;;;;;24.15;16.35;;;2.00;99.90;;;;;;5067433;28;20510;-64
2021/11/23 03:45:07;;;;;;;24.70;15.57;;;2.00;99.90;;;;;;5072282;28;20056;-65
2021/11/23 03:47:34;;;;;;;23.30;15.48;;;2.00;99.90;;;;;;5071909;28;20036;-64
2021/11/23 03:50:00;;;;;;;24.48;16.02;;;2.10;99.90;;;;;;5072895;28;20086;-64
2021/11/23 03:52:27;;;;;;;23.77;16.05;;;2.00;99.90;;;;;;5072769;28;20055;-65
2021/11/23 03:54:53;;;;;;;25.17;15.63;;;2.10;99.90;;;;;;5073189;28;20512;-64
2021/11/23 03:57:19;;;;;;;23.60;14.60;;;2.10;99.90;;;;;;5073173;28;20111;-64
2021/11/23 03:59:48;;;;;;;22.80;15.27;;;2.20;99.90;;;;;;5072897;28;20112;-64
2021/11/23 04:02:16;;;;;;;25.15;14.65;;;2.20;99.90;;;;;;5073273;28;20035;-64
2021/11/23 04:04:42;;;;;;;21.10;14.32;;;2.10;99.90;;;;;;5071617;28;20032;-65
2021/11/23 04:07:08;;;;;;;24.75;15.07;;;2.10;99.90;;;;;;5071682;28;20069;-65
2021/11/23 04:09:34;;;;;;;25.35;16.83;;;2.20;99.90;;;;;;5072528;28;20067;-65
2021/11/23 04:12:00;;;;;;;25.55;15.07;;;2.10;99.90;;;;;;5072650;28;20032;-64
2021/11/23 04:14:25;;;;;;;24.45;14.70;;;2.20;99.90;;;;;;5072546;28;20448;-64
2021/11/23 04:16:51;;;;;;;21.15;13.70;;;2.10;99.90;;;;;;5070683;28;20447;-62
2021/11/23 04:19:17;;;;;;;23.25;13.70;;;2.10;99.90;;;;;;5071978;28;20098;-64
2021/11/23 04:21:42;;;;;;;24.83;14.50;;;2.10;99.90;;;;;;5064028;28;20693;-63
2021/11/23 04:24:08;;;;;;;21.67;14.27;;;2.10;99.90;;;;;;5052486;28;20045;-64
2021/11/23 04:26:34;;;;;;;21.30;13.95;;;2.20;99.90;;;;;;5052563;28;20040;-64
2021/11/23 04:29:00;;;;;;;21.95;13.77;;;2.20;99.90;;;;;;5051305;28;20048;-64
2021/11/23 04:31:25;;;;;;;22.90;15.15;;;2.10;99.90;;;;;;5052366;28;20123;-62
2021/11/23 04:33:51;;;;;;;22.27;14.82;;;2.00;99.90;;;;;;5052543;28;20083;-64
2021/11/23 04:36:17;;;;;;;23.25;14.35;;;2.00;99.90;;;;;;5052333;28;20059;-64
2021/11/23 04:38:42;;;;;;;22.95;13.80;;;2.00;99.90;;;;;;5052854;28;20186;-64
2021/11/23 04:41:08;;;;;;;21.40;14.75;;;2.10;99.90;;;;;;5054230;28;20551;-64
2021/11/23 04:43:34;;;;;;;21.15;14.30;;;2.00;99.90;;;;;;5073046;28;20059;-63
2021/11/23 04:46:00;;;;;;;20.42;14.23;;;2.10;99.90;;;;;;5072745;28;20048;-64
2021/11/23 04:48:26;;;;;;;25.67;13.85;;;2.10;99.90;;;;;;5072759;28;20070;-64
2021/11/23 04:50:52;;;;;;;21.73;14.70;;;2.00;99.90;;;;;;5072562;28;20044;-63
2021/11/23 04:53:17;;;;;;;25.67;15.30;;;2.00;99.90;;;;;;5072510;28;20500;-64
2021/11/23 04:55:43;;;;;;;21.30;14.50;;;2.00;99.90;;;;;;5072327;28;20062;-64
2021/11/23 04:58:09;;;;;;;22.85;14.32;;;2.00;99.90;;;;;;5070713;28;20476;-65
2021/11/23 05:00:34;;;;;;;24.40;15.40;;;2.10;99.90;;;;;;5071021;28;20563;-64
2021/11/23 05:03:00;;;;;;;20.90;13.95;;;2.10;99.90;;;;;;5071972;28;20104;-64
2021/11/23 05:05:27;;;;;;;23.25;14.75;;;2.10;99.90;;;;;;5072414;28;20044;-65
2021/11/23 05:07:53;;;;;;;20.23;13.27;;;2.20;99.90;;;;;;5072066;28;20060;-63
2021/11/23 05:10:19;;;;;;;19.67;13.48;;;2.20;99.90;;;;;;5071674;28;20439;-63
2021/11/23 05:12:44;;;;;;;22.98;14.30;;;2.30;99.90;;;;;;5072038;28;20101;-61
2021/11/23 05:15:10;;;;;;;21.60;14.55;;;2.20;99.90;;;;;;5072082;28;20085;-64
2021/11/23 05:17:37;;;;;;;24.05;12.95;;;2.20;99.90;;;;;;5071888;28;20578;-64
2021/11/23 05:20:05;;;;;;;20.02;13.45;;;2.20;99.90;;;;;;5071472;28;20157;-64
2021/11/23 05:22:30;;;;;;;21.58;13.40;;;2.30;99.90;;;;;;5057246;28;20072;-65
2021/11/23 05:24:56;;;;;;;20.60;13.98;;;2.40;99.90;;;;;;5051095;28;20683;-64
2021/11/23 05:27:22;;;;;;;25.23;13.98;;;2.40;99.90;;;;;;5052236;28;20083;-65
2021/11/23 05:29:47;;;;;;;22.63;13.80;;;2.30;99.90;;;;;;5051375;28;20082;-64
2021/11/23 05:32:13;;;;;;;23.08;14.60;;;2.40;99.90;;;;;;5051096;28;20037;-64
2021/11/23 05:34:39;;;;;;;20.65;13.80;;;2.40;99.90;;;;;;5051930;28;20032;-63
2021/11/23 05:37:04;;;;;;;21.00;14.32;;;2.40;99.90;;;;;;5051111;28;20044;-67
2021/11/23 05:39:30;;;;;;;23.27;14.75;;;2.50;99.90;;;;;;5050388;28;20029;-65
2021/11/23 05:41:56;;;;;;;20.25;14.10;;;2.40;99.90;;;;;;5060234;28;20028;-64
2021/11/23 05:44:21;;;;;;;21.70;14.32;;;2.40;99.90;;;;;;5071953;28;20037;-64
2021/11/23 05:46:47;;;;;;;27.52;14.38;;;2.40;99.90;;;;;;5072023;28;20502;-64
2021/11/23 05:49:15;;;;;;;21.33;14.90;;;2.40;99.90;;;;;;5071435;28;20039;-65
2021/11/23 05:51:40;;;;;;;25.15;15.20;;;2.40;99.90;;;;;;5072323;28;20036;-65
2021/11/23 05:54:06;;;;;;;19.85;14.02;;;2.30;99.90;;;;;;5071206;28;20047;-64
2021/11/23 05:56:32;;;;;;;22.58;15.05;;;2.30;99.90;;;;;;5069331;28;20047;-64
2021/11/23 05:58:58;;;;;;;22.10;14.30;;;2.30;99.90;;;;;;5070640;28;20032;-64
2021/11/23 06:01:23;;;;;;;23.50;14.82;;;2.30;99.90;;;;;;5070849;28;20037;-67
2021/11/23 06:03:49;;;;;;;20.67;14.35;;;2.40;99.90;;;;;;5071591;28;20111;-64
2021/11/23 06:06:15;;;;;;;22.15;15.10;;;2.30;99.90;;;;;;5071570;28;20036;-64
2021/11/23 06:08:41;;;;;;;25.55;16.42;;;2.30;99.90;;;;;;5072208;28;20120;-64
2021/11/23 06:11:07;;;;;;;25.05;15.88;;;2.30;99.90;;;;;;5075154;28;20072;-64
2021/11/23 06:13:33;;;;;;;22.60;15.50;;;2.30;99.90;;;;;;5075421;28;20063;-64
2021/11/23 06:15:58;;;;;;;23.35;15.20;;;2.40;99.90;;;;;;5075545;28;20186;-64
2021/11/23 06:18:24;;;;;;;21.60;14.82;;;2.40;99.90;;;;;;5075680;28;20151;-66
2021/11/23 06:20:56;;;;;;;20.67;15.15;;;2.40;99.90;;;;;;5064683;28;20110;-64
2021/11/23 06:23:23;;;;;;;24.23;15.88;;;2.50;99.90;;;;;;5054240;28;20040;-65
2021/11/23 06:25:54;;;;;;;21.80;14.63;;;2.50;99.90;;;;;;5055277;28;20048;-63
2021/11/23 06:28:21;;;;;;;24.58;14.82;;;2.50;99.90;;;;;;5054260;28;20086;-65
2021/11/23 06:30:48;;;;;;;23.80;15.80;;;2.50;99.90;;;;;;5058708;28;20040;-64
2021/11/23 06:33:14;;;;;;;22.45;15.43;;;2.60;99.90;;;;;;5075651;28;20093;-65
2021/11/23 06:35:40;;;;;;;22.27;15.45;;;2.60;99.90;;;;;;5075241;28;20021;-65
2021/11/23 06:38:07;;;;;;;28.58;15.63;;;2.60;99.90;;;;;;5075659;28;20031;-65
2021/11/23 06:40:34;;;;;;;31.20;16.15;;;2.60;99.90;;;;;;5057232;28;20064;-64
2021/11/23 06:43:00;;;;;;;22.00;14.98;;;2.70;99.90;;;;;;5072173;28;20090;-64
2021/11/23 06:45:26;;;;;;;22.85;15.68;;;2.70;99.90;;;;;;5073714;28;20109;-64
2021/11/23 06:47:53;;;;;;;30.30;16.27;;;2.70;99.90;;;;;;5075331;28;20075;-65
2021/11/23 06:50:19;;;;;;;26.25;16.10;;;2.60;99.90;;;;;;5074064;28;20044;-65
2021/11/23 06:52:45;;;;;;;26.15;16.90;;;2.70;99.90;;;;;;5074925;28;20036;-65
2021/11/23 06:55:11;;;;;;;22.95;15.35;;;2.70;99.90;;;;;;5074655;28;20029;-63
2021/11/23 06:57:37;;;;;;;25.08;16.92;;;2.70;99.90;;;;;;5074854;28;20039;-64
2021/11/23 07:00:06;;;;;;;25.63;17.05;;;2.80;99.90;;;;;;5074170;28;20219;-65
2021/11/23 07:02:32;;;;;;;27.23;17.35;;;2.80;99.90;;;;;;5072977;28;20028;-65
2021/11/23 07:04:59;;;;;;;25.98;16.73;;;2.70;99.90;;;;;;5074301;28;20511;-65
2021/11/23 07:07:25;;;;;;;25.95;16.13;;;2.70;99.90;;;;;;5074896;28;20036;-65
2021/11/23 07:09:51;;;;;;;23.98;16.45;;;2.80;99.90;;;;;;5074736;28;20042;-65
2021/11/23 07:12:16;;;;;;;29.75;17.08;;;2.70;99.90;;;;;;5073286;28;20115;-65
2021/11/23 07:14:42;;;;;;;26.27;17.27;;;2.70;99.90;;;;;;5076139;28;20071;-64
2021/11/23 07:17:08;;;;;;;23.85;15.90;;;2.80;99.90;;;;;;5075235;28;20486;-66
2021/11/23 07:19:33;;;;;;;23.23;16.58;;;2.80;99.90;;;;;;5073720;28;20396;-63
2021/11/23 07:21:59;;;;;;;27.80;16.27;;;2.70;99.90;;;;;;5049470;28;20037;-64
2021/11/23 07:24:25;;;;;;;21.95;16.35;;;2.70;99.90;;;;;;5036235;28;20068;-65
2021/11/23 07:26:50;;;;;;;25.95;17.58;;;2.70;99.90;;;;;;5034505;28;20140;-65
2021/11/23 07:29:16;;;;;;;23.45;17.30;;;2.70;99.90;;;;;;5033863;28;20045;-64
2021/11/23 07:31:42;;;;;;;25.08;16.17;;;2.70;99.90;;;;;;5043195;28;20086;-63
2021/11/23 07:34:08;;;;;;;25.30;16.48;;;2.80;99.90;;;;;;5054564;28;20059;-64
2021/11/23 07:36:34;;;;;;;24.70;16.58;;;2.80;99.90;;;;;;5052553;28;20045;-65
2021/11/23 07:39:01;;;;;;;27.98;17.65;;;2.70;99.90;;;;;;5049527;28;20029;-65
2021/11/23 07:41:28;;;;;;;25.65;16.85;;;2.70;99.90;;;;;;5041778;28;20042;-65
2021/11/23 07:43:54;;;;;;;27.65;17.35;;;2.70;99.90;;;;;;5074575;28;20564;-67
2021/11/23 07:46:19;;;;;;;30.15;17.35;;;2.80;99.90;;;;;;5072978;28;20191;-65
2021/11/23 07:48:45;;;;;;;28.10;16.85;;;2.80;99.90;;;;;;5073925;28;20215;-65
2021/11/23 07:51:11;;;;;;;27.92;17.00;;;3.00;99.90;;;;;;5073758;28;20044;-65
2021/11/23 07:53:38;;;;;;;26.35;17.27;;;2.90;99.90;;;;;;5066980;28;20496;-66
2021/11/23 07:56:04;;;;;;;26.30;16.40;;;2.90;99.90;;;;;;5040265;28;20041;-65
2021/11/23 07:58:30;;;;;;;26.35;15.85;;;3.00;99.90;;;;;;5044053;28;20422;-65
2021/11/23 08:00:56;;;;;;;24.73;15.35;;;3.10;99.90;;;;;;5041791;28;20017;-65
2021/11/23 08:03:21;;;;;;;27.85;16.58;;;3.10;99.90;;;;;;5045295;28;20485;-64
2021/11/23 08:05:47;;;;;;;25.50;16.58;;;3.00;99.90;;;;;;5043266;28;20083;-65
2021/11/23 08:08:13;;;;;;;30.98;18.27;;;3.10;99.90;;;;;;5042213;28;20029;-64
2021/11/23 08:10:40;;;;;;;27.23;17.55;;;3.20;99.90;;;;;;5043330;28;20033;-64
2021/11/23 08:13:06;;;;;;;27.38;16.95;;;3.10;99.90;;;;;;5042518;28;20029;-64
2021/11/23 08:15:31;;;;;;;28.95;16.40;;;3.20;99.90;;;;;;5041225;28;20039;-64
2021/11/23 08:17:57;;;;;;;23.58;15.57;;;3.20;99.90;;;;;;5039925;28;20120;-63
2021/11/23 08:20:23;;;;;;;27.77;16.15;;;3.30;99.90;;;;;;5044070;28;20033;-66
2021/11/23 08:22:48;;;;;;;23.02;14.35;;;3.30;99.90;;;;;;5044354;28;20033;-64
2021/11/23 08:25:15;;;;;;;25.08;16.63;;;3.30;99.90;;;;;;5040705;28;20049;-64
2021/11/23 08:27:41;;;;;;;26.20;15.30;;;3.40;99.90;;;;;;5042537;28;20071;-65
2021/11/23 08:30:10;;;;;;;24.27;15.52;;;3.50;99.90;;;;;;5044769;28;20021;-66
2021/11/23 08:32:36;;;;;;;25.52;14.57;;;3.50;99.90;;;;;;5041918;28;20045;-64
2021/11/23 08:35:03;;;;;;;23.77;14.48;;;3.50;99.90;;;;;;5042611;28;20037;-64
2021/11/23 08:37:29;;;;;;;23.77;15.15;;;3.50;99.90;;;;;;5041954;28;20084;-66
2021/11/23 08:39:55;;;;;;;22.95;14.15;;;3.50;99.90;;;;;;5042914;28;20029;-65
2021/11/23 08:42:22;;;;;;;25.55;14.25;;;3.60;99.90;;;;;;5046657;28;20437;-65
2021/11/23 08:44:49;;;;;;;25.85;14.35;;;3.70;99.90;;;;;;5038857;28;20022;-63
2021/11/23 08:47:15;;;;;;;24.77;15.35;;;3.70;99.90;;;;;;5044270;28;20333;-65
2021/11/23 08:49:42;;;;;;;22.52;14.57;;;3.80;99.90;;;;;;5044624;28;20100;-64
2021/11/23 08:52:08;;;;;;;22.77;14.65;;;3.80;99.90;;;;;;5047997;28;20075;-65
2021/11/23 08:54:33;;;;;;;25.90;15.55;;;3.80;99.90;;;;;;5050236;28;21557;-65
2021/11/23 08:57:04;;;;;;;26.13;15.25;;;3.90;99.90;;;;;;5051904;28;20124;-64
2021/11/23 08:59:34;;;;;;;21.48;14.35;;;4.00;99.90;;;;;;5050996;28;20112;-65
2021/11/23 09:02:01;;;;;;;21.85;14.15;;;4.00;99.90;;;;;;5041475;28;20461;-65
2021/11/23 09:04:29;;;;;;;21.33;13.70;;;4.00;99.90;;;;;;5044098;28;20021;-64
2021/11/23 09:06:55;;;;;;;22.13;14.80;;;4.10;99.90;;;;;;5042189;28;20029;-64
2021/11/23 09:09:26;;;;;;;21.05;14.38;;;4.10;99.90;;;;;;5041255;28;20033;-66
2021/11/23 09:11:52;;;;;;;21.58;14.55;;;4.00;99.90;;;;;;5041764;28;20603;-65
2021/11/23 09:14:18;;;;;;;24.25;14.93;;;4.10;99.90;;;;;;5042271;28;20086;-64
2021/11/23 09:16:44;;;;;;;23.75;15.45;;;4.20;99.90;;;;;;5038892;28;20083;-65
2021/11/23 09:19:10;;;;;;;25.70;14.60;;;4.30;99.90;;;;;;5042750;28;20029;-64
2021/11/23 09:21:35;;;;;;;23.95;15.38;;;4.50;99.90;;;;;;5042937;28;20465;-66
2021/11/23 09:24:02;;;;;;;24.20;14.07;;;4.40;99.90;;;;;;5043115;28;20032;-65
2021/11/23 09:26:28;;;;;;;22.08;15.80;;;4.40;99.90;;;;;;5042653;28;20033;-63
2021/11/23 09:28:55;;;;;;;24.38;15.40;;;4.40;99.90;;;;;;5041612;28;20036;-64
2021/11/23 09:31:21;;;;;;;23.70;16.27;;;4.40;99.90;;;;;;5041356;28;20409;-64
2021/11/23 09:33:47;;;;;;;26.33;15.63;;;4.40;99.90;;;;;;5044212;28;20102;-64
2021/11/23 09:36:13;;;;;;;28.63;17.70;;;4.40;99.90;;;;;;5044450;28;20028;-66
2021/11/23 09:38:39;;;;;;;25.67;16.70;;;4.50;99.90;;;;;;5045188;28;20406;-64
2021/11/23 09:41:06;;;;;;;24.80;15.98;;;4.40;99.90;;;;;;5034698;28;20104;-64
2021/11/23 09:43:32;;;;;;;23.42;16.33;;;4.40;99.90;;;;;;5042230;28;20029;-64
2021/11/23 09:45:58;;;;;;;26.00;16.20;;;4.40;99.90;;;;;;5044754;28;20511;-64
2021/11/23 09:48:24;;;;;;;23.88;15.77;;;4.50;99.90;;;;;;5032409;28;20033;-64
2021/11/23 09:50:51;;;;;;;22.08;15.75;;;4.60;99.90;;;;;;5039665;28;20373;-66
2021/11/23 09:53:18;;;;;;;22.90;17.02;;;4.60;99.90;;;;;;5051419;28;20115;-66
2021/11/23 09:55:45;;;;;;;23.40;15.30;;;4.40;99.90;;;;;;5051184;28;20039;-63
2021/11/23 09:58:12;;;;;;;25.05;16.23;;;4.40;99.90;;;;;;5053198;28;20021;-64
2021/11/23 10:00:49;;;;;;;23.70;16.15;;;4.50;99.90;;;;;;5051990;28;20051;-66
2021/11/23 10:03:27;;;;;;;20.13;14.35;;;4.70;99.90;;;;;;5042821;28;20021;-66
2021/11/23 10:06:04;;;;;;;23.50;15.65;;;4.80;99.90;;;;;;5032415;28;20033;-65
2021/11/23 10:08:34;;;;;;;20.25;15.95;;;4.90;99.90;;;;;;5031150;28;20108;-64
2021/11/23 10:11:00;;;;;;;22.10;15.48;;;4.70;99.90;;;;;;5039865;28;20404;-64
2021/11/23 10:13:38;;;;;;;25.40;16.25;;;4.70;99.90;;;;;;5047632;28;20041;-63
2021/11/23 10:16:04;;;;;;;25.92;17.88;;;4.70;99.90;;;;;;5041493;28;20189;-65
2021/11/23 10:18:29;;;;;;;26.65;15.50;;;4.70;99.90;;;;;;5043036;28;20036;-66
2021/11/23 10:20:58;;;;;;;22.77;15.73;;;4.70;99.90;;;;;;5041175;28;20132;-64
2021/11/23 10:23:37;;;;;;;25.25;17.25;;;4.70;99.90;;;;;;5047729;28;20033;-65
2021/11/23 10:26:21;;;;;;;27.75;16.17;;;4.70;99.90;;;;;;5042670;28;20057;-64
2021/11/23 10:28:55;;;;;;;25.87;16.73;;;4.70;99.90;;;;;;5038112;28;20164;-64
2021/11/23 10:31:27;;;;;;;23.85;15.35;;;4.70;99.90;;;;;;5043494;28;20031;-65
2021/11/23 10:34:00;;;;;;;24.33;16.50;;;4.70;99.90;;;;;;5039711;28;20030;-66
2021/11/23 10:36:37;;;;;;;22.27;15.55;;;4.70;99.90;;;;;;5043642;28;20021;-65
2021/11/23 10:39:17;;;;;;;23.23;16.52;;;4.60;99.90;;;;;;5043869;28;20026;-64
2021/11/23 10:41:48;;;;;;;23.02;16.60;;;4.70;99.90;;;;;;5050221;28;20033;-66
2021/11/23 10:44:19;;;;;;;24.52;15.43;;;4.70;99.90;;;;;;5050556;28;20028;-65
2021/11/23 10:46:55;;;;;;;23.77;16.00;;;4.80;99.90;;;;;;5042692;28;20203;-64
2021/11/23 10:49:29;;;;;;;22.92;15.10;;;4.90;99.90;;;;;;5046166;28;20064;-66
2021/11/23 10:51:57;;;;;;;21.75;15.93;;;5.10;99.90;;;;;;5031747;28;20033;-64
2021/11/23 10:54:23;;;;;;;19.48;14.60;;;5.20;99.90;;;;;;5042746;28;20116;-65
2021/11/23 10:56:57;;;;;;;22.73;14.55;;;5.40;99.90;;;;;;5038360;28;20136;-63
2021/11/23 10:59:24;;;;;;;23.85;14.35;;;5.60;99.90;;;;;;5038302;28;20029;-66
2021/11/23 11:01:50;;;;;;;22.58;14.88;;;5.80;99.90;;;;;;5072827;28;20430;-64
2021/11/23 11:04:18;;;;;;;21.63;15.70;;;5.30;99.90;;;;;;5056090;28;20028;-64
2021/11/23 11:06:44;;;;;;;23.40;16.25;;;5.20;99.90;;;;;;5034408;28;20037;-63
2021/11/23 11:09:10;;;;;;;25.35;15.20;;;5.30;99.90;;;;;;5034946;28;20397;-65
2021/11/23 11:11:38;;;;;;;20.63;15.13;;;5.50;99.90;;;;;;5033360;28;20034;-66
2021/11/23 11:14:05;;;;;;;21.35;15.93;;;5.40;99.90;;;;;;5035034;28;20037;-65
2021/11/23 11:16:35;;;;;;;23.90;16.10;;;5.50;99.90;;;;;;5034881;28;20038;-64
2021/11/23 11:19:12;;;;;;;21.77;16.13;;;5.30;99.90;;;;;;5037986;28;20492;-65
2021/11/23 11:21:59;;;;;;;22.00;15.45;;;5.30;99.90;;;;;;5053486;28;20037;-65
2021/11/23 11:27:12;;;;;;;22.60;15.18;;;5.40;99.90;;;;;;5054742;28;20040;-65
2021/11/23 11:29:39;;;;;;;20.45;14.95;;;5.50;99.90;;;;;;5054550;28;20036;-60
2021/11/23 11:32:06;;;;;;;20.48;15.45;;;5.70;99.90;;;;;;5054648;28;20040;-60
2021/11/23 11:34:39;;;;;;;22.65;15.93;;;5.90;99.90;;;;;;5053176;28;20036;-60
2021/11/23 11:37:16;;;;;;;28.63;15.13;;;5.80;99.90;;;;;;5054294;28;20087;-65
2021/11/23 11:39:55;;;;;;;20.75;15.80;;;5.80;99.90;;;;;;5052564;28;20666;-62
2021/11/23 11:42:20;;;;;;;24.42;15.20;;;5.90;99.90;;;;;;5061738;28;20037;-63
2021/11/23 11:44:53;;;;;;;24.15;16.40;;;6.00;99.90;;;;;;5053517;28;20476;-63
2021/11/23 11:47:33;;;;;;;21.48;16.33;;;6.20;99.90;;;;;;5054218;28;20111;-62
2021/11/23 11:50:18;;;;;;;23.88;16.35;;;6.20;99.90;;;;;;5053910;28;20063;-62
2021/11/23 11:53:03;;;;;;;;;;;6.20;99.90;;;;;;5054064;28;20378;-61
2021/11/23 11:55:31;;;;;;;22.75;16.05;;;6.20;99.90;;;;;;5056133;28;19908;-61
2021/11/23 11:58:04;;;;;;;22.95;15.73;;;6.10;99.90;;;;;;5054819;28;20051;-61
2021/11/23 12:00:32;;;;;;;21.23;15.30;;;6.20;99.90;;;;;;5057266;28;20028;-63
2021/11/23 12:03:23;;;;;;;25.45;17.40;;;6.20;99.90;;;;;;5073578;28;20662;-60
2021/11/23 12:05:49;;;;;;;25.85;15.98;;;6.30;99.90;;;;;;5055338;28;20041;-63
2021/11/23 12:08:33;;;;;;;25.95;16.00;;;6.30;99.90;;;;;;5052654;28;20143;-63
2021/11/23 12:11:21;;;;;;;23.98;15.32;;;6.30;99.90;;;;;;5052354;28;20032;-61
2021/11/23 12:13:53;;;;;;;21.27;15.70;;;6.50;99.90;;;;;;5053745;28;20032;-61
2021/11/23 12:17:02;;;;;;;23.85;15.13;;;6.40;99.90;;;;;;5053837;28;20037;-60
2021/11/23 12:19:49;;;;;;;19.60;15.63;;;6.60;99.90;;;;;;5053862;28;20374;-61
2021/11/23 12:22:21;;;;;;;22.20;14.93;;;6.60;99.90;;;;;;5053656;28;20037;-60
2021/11/23 12:24:46;;;;;;;23.13;16.17;;;6.50;99.90;;;;;;5053636;28;20083;-58
2021/11/23 12:27:17;;;;;;;22.67;16.30;;;6.50;99.90;;;;;;5052506;28;20037;-59
2021/11/23 12:29:44;;;;;;;23.60;15.55;;;6.50;99.90;;;;;;5053535;28;20037;-61
2021/11/23 12:32:10;;;;;;;24.95;16.50;;;6.50;99.90;;;;;;5053963;28;20037;-62
2021/11/23 12:34:46;;;;;;;19.27;15.85;;;6.60;99.90;;;;;;5054363;28;20448;-62
2021/11/23 12:37:12;;;;;;;20.40;14.75;;;6.70;99.90;;;;;;5053070;28;20064;-62
2021/11/23 12:39:38;;;;;;;24.60;15.07;;;6.80;99.90;;;;;;5052113;28;20040;-60
2021/11/23 12:42:09;;;;;;;23.60;15.45;;;7.00;99.90;;;;;;5062408;28;20017;-60
2021/11/23 12:44:37;;;;;;;19.17;14.43;;;6.90;99.90;;;;;;5073161;28;20123;-60